Aérodrome :
LOGIN :

S'inscrire | Disclaimer

   EN    FR    IT 

 










Légende :    VFR   VFR Marginal   IFR   IFR Intensif   IFR Très Intensif
Visi : 
Plafond : 
>= 8 km
>= 3000ft
5 à 8 km
1000 à 3000 ft
1500m à 5 km
500 à 1000 ft
800 à 1500m
200 à 500 ft
< 800m
< 200 ft
Symboles :   Orages  Brouillard  Fortes neiges  Fortes précipitations  Vent > 20 kt
SIGMETs :   Divers  Orages  Givrage  Turbulence  Onde Orograph.  Cendres Volcan.






- Altitude de l'aérodrome : 796 ft
- Code IATA : SYT


LFLN - Saint-Yan

DERNIER METAR :
  • 210930Z AUTO 18019G29KT 150V210 CAVOK 19/10 Q1009 TEMPO 17030G45KT

METARs EXPIRÉS :
  • 210900Z AUTO 18018KT CAVOK 18/10 Q1009 TEMPO 17030G45KT
  • 210830Z AUTO 18019G29KT CAVOK 18/10 Q1008 TEMPO 17030G45KT
  • 210800Z AUTO 17022G35KT 140V210 9999 FEW010 BKN210 BKN240 18/09 Q1007 TEMPO 18030G45KT
  • 210730Z AUTO 17023G36KT CAVOK 18/09 Q1007 NOSIG

TAF TAF LFLN
Valide du 21 à 09h jusqu'au 21 à 18h UTC


210800Z 2109/2118 17020G30KT CAVOK
PROB40
TEMPO 2109/2111 17030G45KT



MET'MAP, la Météo Aéronautique d'un coup d'oeil ! - Copyright ORBIFLY Décembre 2007 - Disclaimer

ORBIFLY MET'MAP TEAM :

Programmation & Développement : Alexandra Zaïnal
Sur une idée originale de : Baudouin d'Aumeries
Assistance à la programmation : Marc-Olivier Méhu
Soutien technique & logistique : Manuel Goepfert

Contact : metmap@orbifly.com




SOURCES & CREDITS :

   NOAA